Time;durP1;ratioP1;P1;durP2;ratioP2;P2;SDS_P1;SDS_P2;PMS_P1;PMS_P2;Temp;Humidity;BMP_temperature;BMP_pressure;BME280_temperature;BME280_humidity;BME280_pressure;Samples;Min_cycle;Max_cycle;Signal;HPM_P1;HPM_P2
2022/02/21 00:00:25;;;;;;;12.48;1.15;;;5.90;99.90;;;;;;4976323;28;20110;-82
2022/02/21 00:02:53;;;;;;;12.27;0.80;;;5.90;99.90;;;;;;4941083;28;20037;-82
2022/02/21 00:05:21;;;;;;;12.82;1.05;;;5.90;99.90;;;;;;4956994;28;20049;-82
2022/02/21 00:07:48;;;;;;;13.05;1.30;;;5.90;99.90;;;;;;4988972;28;20022;-79
2022/02/21 00:10:18;;;;;;;15.82;1.40;;;5.90;99.90;;;;;;4971621;28;20042;-80
2022/02/21 00:12:46;;;;;;;13.13;1.30;;;5.90;99.90;;;;;;4973123;28;20046;-79
2022/02/21 00:15:17;;;;;;;19.67;2.20;;;5.80;99.90;;;;;;4938362;28;20118;-80
2022/02/21 00:17:44;;;;;;;13.98;1.27;;;5.70;99.90;;;;;;4955976;28;20030;-79
2022/02/21 00:20:12;;;;;;;8.00;1.52;;;5.60;99.90;;;;;;4973986;28;20029;-79
2022/02/21 00:22:38;;;;;;;16.60;1.30;;;5.60;99.90;;;;;;4957162;28;20481;-80
2022/02/21 00:25:05;;;;;;;16.27;1.25;;;5.60;99.90;;;;;;4953548;28;20514;-79
2022/02/21 00:27:32;;;;;;;15.00;1.50;;;5.60;99.90;;;;;;4985107;28;20022;-79
2022/02/21 00:29:58;;;;;;;14.32;1.45;;;5.60;99.90;;;;;;4942431;28;20036;-80
2022/02/21 00:32:25;;;;;;;13.63;0.95;;;5.60;99.90;;;;;;4973533;28;20485;-79
2022/02/21 00:34:51;;;;;;;15.90;1.42;;;5.50;99.90;;;;;;4957035;28;20038;-79
2022/02/21 00:37:18;;;;;;;18.85;1.02;;;5.50;99.90;;;;;;4959068;28;20508;-79
2022/02/21 00:39:44;;;;;;;14.48;1.05;;;5.50;99.90;;;;;;4941075;28;20130;-79
2022/02/21 00:42:10;;;;;;;16.92;1.42;;;5.50;99.90;;;;;;4960014;28;20030;-82
2022/02/21 00:44:39;;;;;;;19.25;1.65;;;5.50;99.90;;;;;;4957940;28;20026;-82
2022/02/21 00:47:06;;;;;;;21.67;1.77;;;5.50;99.90;;;;;;4955545;28;20043;-82
2022/02/21 00:49:33;;;;;;;22.75;2.13;;;5.50;99.90;;;;;;4974057;28;20019;-82
2022/02/21 00:52:01;;;;;;;14.82;1.92;;;5.40;99.90;;;;;;4943730;28;20026;-80
2022/02/21 00:54:28;;;;;;;16.40;1.52;;;5.40;99.90;;;;;;4944796;28;20035;-83
2022/02/21 00:56:55;;;;;;;16.88;1.55;;;5.40;99.90;;;;;;4957548;28;20517;-82
2022/02/21 00:59:21;;;;;;;21.35;3.53;;;5.40;99.90;;;;;;4974118;28;20498;-82
2022/02/21 01:01:48;;;;;;;23.23;1.80;;;5.40;99.90;;;;;;4959627;28;20046;-82
2022/02/21 01:04:14;;;;;;;11.43;1.38;;;5.40;99.90;;;;;;4941834;28;20041;-83
2022/02/21 01:06:41;;;;;;;19.92;1.95;;;5.30;99.90;;;;;;4955499;28;20030;-82
2022/02/21 01:09:10;;;;;;;23.42;1.70;;;5.30;99.90;;;;;;4985427;28;20034;-83
2022/02/21 01:11:36;;;;;;;20.05;2.13;;;5.30;99.90;;;;;;4988972;28;20477;-83
2022/02/21 01:14:03;;;;;;;17.90;1.42;;;5.30;99.90;;;;;;4966639;28;20046;-83
2022/02/21 01:16:30;;;;;;;13.38;1.33;;;5.40;99.90;;;;;;4971779;28;20046;-85
2022/02/21 01:18:57;;;;;;;15.23;1.10;;;5.30;99.90;;;;;;4958048;28;20041;-82
2022/02/21 01:21:24;;;;;;;11.35;1.10;;;5.20;99.90;;;;;;4937334;28;20045;-83
2022/02/21 01:23:51;;;;;;;12.07;1.30;;;4.90;99.90;;;;;;4937678;28;20037;-83
2022/02/21 01:26:18;;;;;;;11.63;1.10;;;4.80;99.90;;;;;;4931446;28;20042;-82
2022/02/21 01:28:44;;;;;;;17.48;1.80;;;4.70;99.90;;;;;;4956280;28;20041;-83
2022/02/21 01:31:12;;;;;;;23.88;2.58;;;4.70;99.90;;;;;;4977708;28;20039;-83
2022/02/21 01:33:39;;;;;;;13.77;1.63;;;4.60;99.90;;;;;;4944917;28;20042;-84
2022/02/21 01:36:06;;;;;;;14.40;1.50;;;4.50;99.90;;;;;;4960083;28;20072;-83
2022/02/21 01:38:33;;;;;;;19.20;1.98;;;4.50;99.90;;;;;;4989966;28;20030;-83
2022/02/21 01:40:59;;;;;;;19.98;2.15;;;4.50;99.90;;;;;;4942406;28;20043;-84
2022/02/21 01:43:26;;;;;;;18.08;2.03;;;4.40;99.90;;;;;;4992698;28;20030;-83
2022/02/21 01:45:53;;;;;;;21.20;1.83;;;4.40;99.90;;;;;;4959803;28;20041;-83
2022/02/21 01:48:19;;;;;;;15.73;1.42;;;4.40;99.90;;;;;;4972431;28;20042;-84
2022/02/21 01:50:46;;;;;;;18.35;2.15;;;4.50;99.90;;;;;;4975360;28;20496;-83
2022/02/21 01:53:13;;;;;;;18.20;2.27;;;4.50;99.90;;;;;;4976326;28;20490;-84
2022/02/21 01:55:42;;;;;;;16.05;1.63;;;4.70;99.90;;;;;;4958232;28;20039;-84
2022/02/21 01:58:10;;;;;;;14.43;2.08;;;4.70;99.90;;;;;;4956875;28;20042;-84
2022/02/21 02:00:37;;;;;;;14.13;1.60;;;4.70;99.90;;;;;;4993380;28;20031;-84
2022/02/21 02:03:06;;;;;;;18.55;1.58;;;4.70;99.90;;;;;;4957664;28;20060;-83
2022/02/21 02:05:34;;;;;;;21.13;1.73;;;4.70;99.90;;;;;;4941871;28;20038;-84
2022/02/21 02:08:02;;;;;;;11.73;1.50;;;4.60;99.90;;;;;;4963027;28;20050;-84
2022/02/21 02:10:31;;;;;;;13.87;1.60;;;4.60;99.90;;;;;;4954029;28;20047;-84
2022/02/21 02:12:58;;;;;;;17.30;1.43;;;4.60;99.90;;;;;;4986166;28;20517;-84
2022/02/21 02:15:27;;;;;;;13.60;1.45;;;4.50;99.90;;;;;;4957954;28;20512;-84
2022/02/21 02:17:54;;;;;;;17.98;1.63;;;4.50;99.90;;;;;;4948432;28;20049;-84
2022/02/21 02:20:20;;;;;;;12.70;1.45;;;4.50;99.90;;;;;;4960071;28;20469;-84
2022/02/21 02:22:47;;;;;;;18.13;2.10;;;4.50;99.90;;;;;;4976435;28;20039;-84
2022/02/21 02:25:16;;;;;;;15.90;1.27;;;4.50;99.90;;;;;;4945169;28;20039;-85
2022/02/21 02:27:44;;;;;;;17.58;1.55;;;4.40;99.90;;;;;;4956616;28;20053;-85
2022/02/21 02:30:11;;;;;;;17.40;1.85;;;4.50;99.90;;;;;;4975687;28;20053;-84
2022/02/21 02:32:38;;;;;;;12.83;1.10;;;4.50;99.90;;;;;;4961493;28;20049;-84
2022/02/21 02:35:05;;;;;;;13.85;1.58;;;4.40;99.90;;;;;;4959028;28;20041;-78
2022/02/21 02:37:32;;;;;;;16.40;1.85;;;4.40;99.90;;;;;;4958365;28;20070;-78
2022/02/21 02:39:59;;;;;;;13.45;1.38;;;4.50;99.90;;;;;;4991632;28;20034;-78
2022/02/21 02:42:26;;;;;;;15.05;1.40;;;4.50;99.90;;;;;;4961082;28;20038;-78
2022/02/21 02:44:52;;;;;;;14.57;1.23;;;4.50;99.90;;;;;;4972760;28;20430;-84
2022/02/21 02:47:19;;;;;;;18.27;1.77;;;4.50;99.90;;;;;;4942594;28;20038;-84
2022/02/21 02:49:45;;;;;;;12.43;1.52;;;4.50;99.90;;;;;;4941025;28;20041;-84
2022/02/21 02:52:12;;;;;;;16.73;2.30;;;4.50;99.90;;;;;;4960618;28;20030;-83
2022/02/21 02:54:39;;;;;;;21.53;1.90;;;4.40;99.90;;;;;;4974966;28;20378;-84
2022/02/21 02:57:06;;;;;;;11.32;1.40;;;4.40;99.90;;;;;;4988647;28;20042;-84
2022/02/21 02:59:33;;;;;;;15.15;1.63;;;4.40;99.90;;;;;;4959235;28;20022;-84
2022/02/21 03:01:59;;;;;;;13.77;1.73;;;4.30;99.90;;;;;;4946464;28;20046;-84
2022/02/21 03:04:26;;;;;;;22.50;2.05;;;4.30;99.90;;;;;;4971080;28;20027;-83
2022/02/21 03:06:53;;;;;;;21.88;1.38;;;4.30;99.90;;;;;;4990478;28;20038;-84
2022/02/21 03:09:21;;;;;;;14.87;1.20;;;4.30;99.90;;;;;;4962041;28;20083;-84
2022/02/21 03:11:48;;;;;;;12.43;1.60;;;4.30;99.90;;;;;;4958167;28;20757;-84
2022/02/21 03:14:14;;;;;;;14.40;1.85;;;4.30;99.90;;;;;;4973202;28;20442;-84
2022/02/21 03:16:41;;;;;;;17.95;2.58;;;4.20;99.90;;;;;;4959467;28;20055;-83
2022/02/21 03:19:07;;;;;;;15.77;1.77;;;4.20;99.90;;;;;;4956405;28;20041;-83
2022/02/21 03:21:34;;;;;;;13.70;1.38;;;4.10;99.90;;;;;;4961552;28;20038;-83
2022/02/21 03:24:00;;;;;;;13.27;2.17;;;4.10;99.90;;;;;;4961518;28;20031;-84
2022/02/21 03:26:26;;;;;;;12.33;1.10;;;4.00;99.90;;;;;;4945188;28;20046;-83
2022/02/21 03:28:53;;;;;;;16.17;1.33;;;4.10;99.90;;;;;;4973648;28;20061;-83
2022/02/21 03:31:20;;;;;;;11.97;1.40;;;4.10;99.90;;;;;;4950100;28;20046;-84
2022/02/21 03:33:46;;;;;;;19.33;2.13;;;4.10;99.90;;;;;;4972272;28;20661;-84
2022/02/21 03:36:17;;;;;;;24.00;2.63;;;4.20;99.90;;;;;;4956668;28;20034;-84
2022/02/21 03:38:44;;;;;;;16.63;2.00;;;4.20;99.90;;;;;;4977824;28;20132;-85
2022/02/21 03:41:10;;;;;;;16.48;2.15;;;4.20;99.90;;;;;;4943551;28;20035;-84
2022/02/21 03:43:38;;;;;;;15.63;1.30;;;4.20;99.90;;;;;;4976402;28;20033;-84
2022/02/21 03:46:05;;;;;;;18.35;2.10;;;4.20;99.90;;;;;;4959035;28;20678;-83
2022/02/21 03:48:34;;;;;;;15.57;1.67;;;4.20;99.90;;;;;;4970008;28;20104;-84
2022/02/21 03:51:03;;;;;;;13.50;2.22;;;4.10;99.90;;;;;;4942239;28;20041;-83
2022/02/21 03:53:32;;;;;;;13.65;1.48;;;4.10;99.90;;;;;;4974633;28;20038;-83
2022/02/21 03:56:00;;;;;;;17.07;1.33;;;4.10;99.90;;;;;;4988014;28;20041;-84
2022/02/21 03:58:26;;;;;;;19.90;2.73;;;4.10;99.90;;;;;;4954962;28;20026;-84
2022/02/21 04:00:56;;;;;;;13.90;1.63;;;4.10;99.90;;;;;;4941838;28;20034;-84
2022/02/21 04:03:23;;;;;;;13.27;1.75;;;4.00;99.90;;;;;;4969971;28;20039;-83
2022/02/21 04:05:50;;;;;;;10.93;1.47;;;4.00;99.90;;;;;;4942997;28;20049;-84
2022/02/21 04:08:16;;;;;;;11.40;1.43;;;4.00;99.90;;;;;;4937679;28;20030;-85
2022/02/21 04:10:43;;;;;;;15.95;2.08;;;4.00;99.90;;;;;;4975327;28;20050;-83
2022/02/21 04:13:11;;;;;;;15.63;2.13;;;3.90;99.90;;;;;;4970264;28;20402;-83
2022/02/21 04:15:38;;;;;;;19.97;2.03;;;4.00;99.90;;;;;;4959116;28;20050;-78
2022/02/21 04:18:05;;;;;;;17.23;2.40;;;4.00;99.90;;;;;;4987139;28;20034;-78
2022/02/21 04:20:33;;;;;;;16.05;2.13;;;4.00;99.90;;;;;;4976822;28;20034;-78
2022/02/21 04:22:59;;;;;;;12.52;1.92;;;4.00;99.90;;;;;;4957828;28;20385;-78
2022/02/21 04:25:26;;;;;;;14.40;1.23;;;4.00;99.90;;;;;;4970753;28;20022;-78
2022/02/21 04:27:54;;;;;;;15.10;1.27;;;4.00;99.90;;;;;;4955576;28;20018;-78
2022/02/21 04:30:23;;;;;;;15.25;1.58;;;4.10;99.90;;;;;;4958476;28;20038;-78
2022/02/21 04:32:51;;;;;;;18.63;2.03;;;4.10;99.90;;;;;;4944400;28;20034;-78
2022/02/21 04:35:19;;;;;;;21.35;2.40;;;4.10;99.90;;;;;;4971758;28;20488;-78
2022/02/21 04:37:46;;;;;;;17.73;1.97;;;4.10;99.90;;;;;;4954535;28;20045;-78
2022/02/21 04:40:16;;;;;;;18.70;2.30;;;4.20;99.90;;;;;;4990938;28;20035;-78
2022/02/21 04:42:42;;;;;;;18.53;2.63;;;4.20;99.90;;;;;;4958263;28;20826;-78
2022/02/21 04:45:09;;;;;;;19.58;2.50;;;4.20;99.90;;;;;;4958683;28;20096;-78
2022/02/21 04:47:37;;;;;;;11.40;1.27;;;4.20;99.90;;;;;;4954162;28;20046;-78
2022/02/21 04:50:08;;;;;;;12.93;1.67;;;4.20;99.90;;;;;;4958472;28;20053;-78
2022/02/21 04:52:37;;;;;;;16.80;1.88;;;4.10;99.90;;;;;;4942526;28;20410;-79
2022/02/21 04:55:05;;;;;;;17.63;2.70;;;4.00;99.90;;;;;;4969810;28;20038;-78
2022/02/21 04:57:31;;;;;;;17.13;2.50;;;4.00;99.90;;;;;;4970969;28;20037;-79
2022/02/21 04:59:59;;;;;;;13.40;1.10;;;3.90;99.90;;;;;;4973107;28;20046;-80
2022/02/21 05:02:25;;;;;;;13.55;1.77;;;4.00;99.90;;;;;;4924147;28;20038;-78
2022/02/21 05:04:52;;;;;;;18.83;2.53;;;4.00;99.90;;;;;;4995003;28;20474;-79
2022/02/21 05:07:19;;;;;;;17.17;1.85;;;4.00;99.90;;;;;;4957071;28;20053;-79
2022/02/21 05:09:48;;;;;;;12.77;1.90;;;4.00;99.90;;;;;;4977129;28;20043;-79
2022/02/21 05:12:17;;;;;;;18.97;1.87;;;4.00;99.90;;;;;;4963363;28;20058;-85
2022/02/21 05:14:43;;;;;;;11.50;1.40;;;4.10;99.90;;;;;;4943978;28;20053;-85
2022/02/21 05:17:10;;;;;;;10.60;1.13;;;4.00;99.90;;;;;;4964522;28;20042;-85
2022/02/21 05:19:36;;;;;;;13.25;1.33;;;4.10;99.90;;;;;;4973674;28;20374;-85
2022/02/21 05:22:03;;;;;;;13.65;1.20;;;4.10;99.90;;;;;;4958443;28;20047;-85
2022/02/21 05:24:29;;;;;;;9.57;1.13;;;4.10;99.90;;;;;;4942048;28;20026;-85
2022/02/21 05:26:56;;;;;;;19.88;1.98;;;4.10;99.90;;;;;;4958908;28;20039;-85
2022/02/21 05:29:22;;;;;;;11.70;1.40;;;4.10;99.90;;;;;;4962460;28;20034;-85
2022/02/21 05:31:49;;;;;;;11.20;1.80;;;4.20;99.90;;;;;;4974458;28;20128;-86
2022/02/21 05:34:17;;;;;;;11.73;0.93;;;4.20;99.90;;;;;;4959787;28;20035;-86
2022/02/21 05:36:44;;;;;;;16.67;1.67;;;4.30;99.90;;;;;;4959261;28;20050;-86
2022/02/21 05:39:11;;;;;;;12.13;1.58;;;4.30;99.90;;;;;;4958496;28;20034;-85
2022/02/21 05:41:39;;;;;;;18.30;1.83;;;4.30;99.90;;;;;;4961947;28;20030;-85
2022/02/21 05:44:06;;;;;;;11.30;1.58;;;4.30;99.90;;;;;;4971979;28;20022;-79
2022/02/21 05:46:35;;;;;;;13.17;1.77;;;4.30;99.90;;;;;;4961492;28;20041;-78
2022/02/21 05:49:03;;;;;;;19.77;1.58;;;4.30;99.90;;;;;;4988824;28;20402;-79
2022/02/21 05:51:30;;;;;;;13.18;1.55;;;4.30;99.90;;;;;;4992260;28;20059;-79
2022/02/21 05:53:56;;;;;;;13.50;1.48;;;4.20;99.90;;;;;;4975622;28;20034;-79
2022/02/21 05:56:23;;;;;;;10.90;1.25;;;4.20;99.90;;;;;;4942432;28;20026;-79
2022/02/21 05:58:49;;;;;;;17.35;2.72;;;4.10;99.90;;;;;;4962745;28;20489;-85
2022/02/21 06:01:18;;;;;;;12.05;1.45;;;4.10;99.90;;;;;;4961003;28;20382;-85
2022/02/21 06:03:44;;;;;;;19.55;1.25;;;4.00;99.90;;;;;;4972617;28;20041;-85
2022/02/21 06:06:12;;;;;;;13.73;1.30;;;4.00;99.90;;;;;;4948587;28;20054;-85
2022/02/21 06:08:41;;;;;;;11.25;1.70;;;4.00;99.90;;;;;;4971860;28;20038;-78
2022/02/21 06:11:08;;;;;;;22.15;2.55;;;4.00;99.90;;;;;;4959535;28;20382;-78
2022/02/21 06:13:36;;;;;;;15.57;1.67;;;4.00;99.90;;;;;;4988825;28;20046;-78
2022/02/21 06:16:03;;;;;;;13.02;1.38;;;4.00;99.90;;;;;;4974740;28;20049;-78
2022/02/21 06:18:29;;;;;;;20.08;1.63;;;4.00;99.90;;;;;;4988551;28;20041;-79
2022/02/21 06:20:56;;;;;;;9.40;1.27;;;4.00;99.90;;;;;;4979032;28;20022;-78
2022/02/21 06:23:29;;;;;;;18.30;1.83;;;4.00;99.90;;;;;;4975713;28;20019;-78
2022/02/21 06:25:58;;;;;;;12.95;1.50;;;4.00;99.90;;;;;;4974081;28;20037;-78
2022/02/21 06:28:28;;;;;;;13.63;1.75;;;4.00;99.90;;;;;;4990444;28;20055;-78
2022/02/21 06:30:57;;;;;;;12.02;1.40;;;4.00;99.90;;;;;;4974623;28;20042;-76
2022/02/21 06:33:24;;;;;;;22.95;2.15;;;4.00;99.90;;;;;;4993680;28;20373;-77
2022/02/21 06:35:51;;;;;;;15.90;1.85;;;3.90;99.90;;;;;;4971911;28;20030;-78
2022/02/21 06:38:18;;;;;;;11.77;1.25;;;3.90;99.90;;;;;;4960601;28;20027;-78
2022/02/21 06:40:44;;;;;;;15.77;1.40;;;3.90;99.90;;;;;;4975119;28;20038;-77
2022/02/21 06:43:11;;;;;;;16.87;2.30;;;4.00;99.90;;;;;;4976099;28;20047;-77
2022/02/21 06:45:38;;;;;;;18.33;3.05;;;4.00;99.90;;;;;;4958010;28;20041;-80
2022/02/21 06:48:05;;;;;;;16.23;1.87;;;4.10;99.90;;;;;;4959726;28;20038;-80
2022/02/21 06:50:31;;;;;;;24.90;3.72;;;4.10;99.90;;;;;;4973358;28;20053;-79
2022/02/21 06:52:57;;;;;;;20.88;3.03;;;4.10;99.90;;;;;;4974344;28;20041;-79
2022/02/21 06:55:24;;;;;;;16.13;2.50;;;4.00;99.90;;;;;;4946764;28;20512;-80
2022/02/21 06:57:51;;;;;;;19.45;2.53;;;4.00;99.90;;;;;;4956300;28;20030;-79
2022/02/21 07:00:18;;;;;;;16.60;2.17;;;4.10;99.90;;;;;;4992904;28;20709;-80
2022/02/21 07:02:45;;;;;;;14.70;1.60;;;4.10;99.90;;;;;;4939888;28;20042;-80
2022/02/21 07:05:11;;;;;;;15.18;2.03;;;4.20;99.90;;;;;;4975138;28;20035;-78
2022/02/21 07:07:39;;;;;;;16.85;1.92;;;4.30;99.90;;;;;;4943389;28;20485;-80
2022/02/21 07:10:06;;;;;;;18.73;2.75;;;4.40;99.90;;;;;;4973688;28;20049;-80
2022/02/21 07:12:34;;;;;;;20.23;2.95;;;4.40;99.90;;;;;;4957435;28;20057;-78
2022/02/21 07:15:00;;;;;;;19.30;2.10;;;4.50;99.90;;;;;;4985181;28;20037;-78
2022/02/21 07:17:27;;;;;;;17.40;2.17;;;4.60;99.90;;;;;;4950662;28;21294;-78
2022/02/21 07:19:55;;;;;;;24.90;3.65;;;4.60;99.90;;;;;;4966307;28;20482;-78
2022/02/21 07:22:21;;;;;;;17.02;2.17;;;4.70;99.90;;;;;;4936161;28;20033;-78
2022/02/21 07:24:48;;;;;;;15.90;2.17;;;4.70;99.90;;;;;;4965351;28;20026;-78
2022/02/21 07:27:15;;;;;;;12.73;1.20;;;4.70;99.90;;;;;;4949813;28;20031;-84
2022/02/21 07:29:42;;;;;;;13.07;1.55;;;4.80;99.90;;;;;;4983644;28;20021;-84
2022/02/21 07:32:12;;;;;;;18.10;1.70;;;4.80;99.90;;;;;;4950510;28;20035;-84
2022/02/21 07:34:41;;;;;;;15.77;1.58;;;4.90;99.90;;;;;;4953939;28;20042;-83
2022/02/21 07:37:10;;;;;;;22.17;2.22;;;4.90;99.90;;;;;;4974030;28;20647;-83
2022/02/21 07:39:40;;;;;;;15.10;1.83;;;4.90;99.90;;;;;;4964255;28;20038;-83
2022/02/21 07:42:16;;;;;;;13.95;2.25;;;5.00;99.90;;;;;;4949581;28;20042;-84
2022/02/21 07:44:55;;;;;;;20.55;3.67;;;5.00;99.90;;;;;;4940306;28;20042;-84
2022/02/21 07:47:28;;;;;;;16.97;2.07;;;5.00;99.90;;;;;;4963812;28;20027;-83
2022/02/21 07:49:59;;;;;;;19.35;2.30;;;5.10;99.90;;;;;;4982036;28;20916;-84
2022/02/21 07:52:30;;;;;;;16.13;1.83;;;5.10;99.90;;;;;;4949518;28;20090;-84
2022/02/21 07:55:04;;;;;;;13.70;1.88;;;5.10;99.90;;;;;;4950102;28;20033;-84
2022/02/21 07:57:33;;;;;;;15.95;1.80;;;5.20;99.90;;;;;;4965113;28;20041;-83
2022/02/21 08:00:03;;;;;;;12.77;1.60;;;5.30;99.90;;;;;;4949945;28;20505;-84
2022/02/21 08:02:41;;;;;;;19.45;1.92;;;5.30;99.90;;;;;;4951492;28;20455;-84
2022/02/21 08:05:16;;;;;;;14.80;1.70;;;5.40;99.90;;;;;;4950448;28;20027;-85
2022/02/21 08:08:10;;;;;;;15.38;2.22;;;5.40;99.90;;;;;;4967456;28;20271;-83
2022/02/21 08:10:42;;;;;;;17.88;1.80;;;5.60;99.90;;;;;;4980792;28;20046;-84
2022/02/21 08:13:09;;;;;;;18.05;1.50;;;5.70;99.90;;;;;;4973069;28;20046;-84
2022/02/21 08:15:41;;;;;;;14.88;1.92;;;5.70;99.90;;;;;;4990422;28;20033;-85
2022/02/21 08:18:09;;;;;;;22.30;2.67;;;5.70;99.90;;;;;;4965920;28;20478;-84
2022/02/21 08:20:39;;;;;;;22.02;2.75;;;5.70;99.90;;;;;;4989851;28;20033;-82
2022/02/21 08:23:13;;;;;;;17.70;1.90;;;5.70;99.90;;;;;;4973566;28;20045;-83
2022/02/21 08:25:44;;;;;;;15.90;1.85;;;5.70;99.90;;;;;;4974869;28;20110;-83
2022/02/21 08:28:10;;;;;;;20.35;2.20;;;5.70;99.90;;;;;;4965309;28;20033;-83
2022/02/21 08:30:39;;;;;;;10.85;1.80;;;5.70;99.90;;;;;;4974526;28;20049;-84
2022/02/21 08:33:07;;;;;;;13.27;1.52;;;5.60;99.90;;;;;;4968535;28;20069;-84
2022/02/21 08:35:33;;;;;;;11.63;2.35;;;5.60;99.90;;;;;;4961786;28;20030;-83
2022/02/21 08:38:02;;;;;;;15.98;1.83;;;5.60;99.90;;;;;;4972528;28;20035;-83
2022/02/21 08:40:28;;;;;;;20.65;2.40;;;5.60;99.90;;;;;;4945499;28;20382;-83
2022/02/21 08:42:55;;;;;;;11.52;1.58;;;5.60;99.90;;;;;;4976869;28;20343;-84
2022/02/21 08:45:22;;;;;;;17.70;1.73;;;5.60;99.90;;;;;;4989944;28;20112;-84
2022/02/21 08:47:48;;;;;;;12.15;1.25;;;5.60;99.90;;;;;;4970406;28;20018;-84
2022/02/21 08:50:15;;;;;;;13.02;1.58;;;5.60;99.90;;;;;;4962585;28;20039;-83
2022/02/21 08:52:42;;;;;;;8.38;1.25;;;5.60;99.90;;;;;;4956733;28;20038;-83
2022/02/21 08:55:10;;;;;;;15.70;1.65;;;5.60;99.90;;;;;;4974535;28;20065;-83
2022/02/21 08:57:38;;;;;;;18.25;2.22;;;5.50;99.90;;;;;;4971572;28;20038;-83
2022/02/21 09:00:06;;;;;;;13.60;1.70;;;5.50;99.90;;;;;;4962023;28;20022;-85
2022/02/21 09:02:36;;;;;;;17.88;2.60;;;5.40;99.90;;;;;;4960562;28;20030;-85
2022/02/21 09:05:03;;;;;;;13.43;1.98;;;5.30;99.90;;;;;;4944305;28;20038;-85
2022/02/21 09:07:30;;;;;;;19.08;1.50;;;5.10;99.90;;;;;;4972081;28;20030;-84
2022/02/21 09:09:58;;;;;;;16.05;2.65;;;5.00;99.90;;;;;;4958751;28;20049;-84
2022/02/21 09:12:25;;;;;;;18.30;1.45;;;4.80;99.90;;;;;;4924704;28;20061;-84
2022/02/21 09:14:52;;;;;;;15.18;1.40;;;4.70;99.90;;;;;;4957863;28;20038;-87
2022/02/21 09:17:18;;;;;;;21.65;4.43;;;4.70;99.90;;;;;;4938553;28;20045;-83
2022/02/21 09:19:45;;;;;;;16.05;2.42;;;4.70;99.90;;;;;;4972293;28;20449;-82
2022/02/21 09:22:12;;;;;;;13.40;2.17;;;4.60;99.90;;;;;;4974601;28;20033;-84
2022/02/21 09:24:39;;;;;;;17.00;1.90;;;4.60;99.90;;;;;;4956607;28;20030;-84
2022/02/21 09:27:06;;;;;;;15.98;1.98;;;4.60;99.90;;;;;;4972308;28;20307;-84
2022/02/21 09:29:32;;;;;;;17.90;2.72;;;4.50;99.90;;;;;;4942205;28;20029;-84
2022/02/21 09:31:59;;;;;;;16.77;1.80;;;4.50;99.90;;;;;;4957202;28;20033;-76
2022/02/21 09:34:25;;;;;;;19.02;2.30;;;4.50;99.90;;;;;;4979618;28;20587;-77
2022/02/21 09:36:52;;;;;;;18.23;1.67;;;4.40;99.90;;;;;;4956720;28;20038;-77
2022/02/21 09:39:18;;;;;;;13.33;2.00;;;4.30;99.90;;;;;;4968577;28;20046;-77
2022/02/21 09:41:44;;;;;;;14.90;2.33;;;4.30;99.90;;;;;;4971618;28;20492;-77
2022/02/21 09:44:11;;;;;;;22.42;2.00;;;4.30;99.90;;;;;;4942645;28;20026;-84
2022/02/21 09:46:41;;;;;;;17.67;2.40;;;4.30;99.90;;;;;;4972158;28;20034;-84
2022/02/21 09:49:09;;;;;;;11.75;1.42;;;4.20;99.90;;;;;;4971509;28;20045;-84
2022/02/21 09:51:35;;;;;;;12.00;1.97;;;4.20;99.90;;;;;;4994722;28;20466;-83
2022/02/21 09:54:02;;;;;;;18.70;1.83;;;4.20;99.90;;;;;;4960824;28;20018;-77
2022/02/21 09:56:28;;;;;;;20.47;1.90;;;4.20;99.90;;;;;;4959197;28;20022;-77
2022/02/21 09:58:55;;;;;;;12.80;1.50;;;4.20;99.90;;;;;;4956606;28;20021;-77
2022/02/21 10:01:24;;;;;;;15.48;2.33;;;4.20;99.90;;;;;;4975132;28;20648;-77
2022/02/21 10:03:54;;;;;;;10.07;1.83;;;4.20;99.90;;;;;;4977270;28;20018;-77
2022/02/21 10:06:26;;;;;;;12.90;1.80;;;4.20;99.90;;;;;;4946911;28;20042;-77
2022/02/21 10:09:12;;;;;;;13.37;2.07;;;4.20;99.90;;;;;;4969593;28;20033;-76
2022/02/21 10:11:46;;;;;;;16.80;2.20;;;4.20;99.90;;;;;;4960937;28;20497;-77
2022/02/21 10:14:24;;;;;;;12.43;1.63;;;4.30;99.90;;;;;;4956035;28;20066;-76
2022/02/21 10:16:56;;;;;;;14.07;2.50;;;4.30;99.90;;;;;;4958575;28;20042;-76
2022/02/21 10:19:36;;;;;;;20.08;3.45;;;4.30;99.90;;;;;;4927859;28;20069;-77
2022/02/21 10:22:08;;;;;;;18.50;2.07;;;4.30;99.90;;;;;;4990873;28;20034;-77
2022/02/21 10:24:44;;;;;;;12.82;2.80;;;4.30;99.90;;;;;;4993579;28;20038;-76
2022/02/21 10:27:18;;;;;;;18.25;3.10;;;4.40;99.90;;;;;;4984978;28;20018;-76
2022/02/21 10:29:52;;;;;;;18.43;1.77;;;4.40;99.90;;;;;;4973252;28;20062;-77
2022/02/21 10:32:27;;;;;;;23.30;3.97;;;4.40;99.90;;;;;;4971850;28;20474;-77
2022/02/21 10:35:12;;;;;;;20.50;2.80;;;4.40;99.90;;;;;;4975323;28;20050;-76
2022/02/21 10:38:09;;;;;;;19.47;2.03;;;4.40;99.90;;;;;;4965051;28;20045;-76
2022/02/21 10:40:40;;;;;;;14.40;2.23;;;4.30;99.90;;;;;;4990413;28;20473;-76
2022/02/21 10:43:10;;;;;;;;;;;4.20;99.90;;;;;;4991891;28;20023;-77
2022/02/21 10:45:39;;;;;;;26.73;3.40;;;4.20;99.90;;;;;;4974980;28;19905;-76
2022/02/21 10:48:07;;;;;;;21.50;2.35;;;4.20;99.90;;;;;;4973026;28;20025;-80
2022/02/21 10:50:36;;;;;;;16.43;1.63;;;4.20;99.90;;;;;;4977991;28;20030;-80
2022/02/21 10:53:10;;;;;;;17.20;1.80;;;4.20;99.90;;;;;;4991739;28;20030;-82
2022/02/21 10:55:38;;;;;;;20.07;2.60;;;4.20;99.90;;;;;;4957365;28;20018;-81
2022/02/21 10:58:18;;;;;;;18.23;2.20;;;4.20;99.90;;;;;;4973902;28;20057;-81
2022/02/21 11:00:51;;;;;;;18.67;1.87;;;4.20;99.90;;;;;;4958463;28;20038;-80
2022/02/21 11:03:22;;;;;;;19.20;2.10;;;4.20;99.90;;;;;;4974465;28;20022;-82
2022/02/21 11:06:01;;;;;;;13.95;1.73;;;4.20;99.90;;;;;;4989181;28;20037;-82
2022/02/21 11:08:38;;;;;;;18.63;1.48;;;4.20;99.90;;;;;;4989294;28;20494;-83
2022/02/21 11:11:12;;;;;;;12.93;1.52;;;4.30;99.90;;;;;;4975310;28;20041;-82
2022/02/21 11:13:41;;;;;;;20.10;1.80;;;4.30;99.90;;;;;;4956423;28;20061;-77
2022/02/21 11:16:09;;;;;;;20.43;1.87;;;4.30;99.90;;;;;;4976752;28;20496;-76
2022/02/21 11:18:36;;;;;;;19.07;1.50;;;4.30;99.90;;;;;;4989486;28;20031;-77
2022/02/21 11:21:03;;;;;;;23.13;1.70;;;4.40;99.90;;;;;;4991160;28;20516;-77
2022/02/21 11:23:32;;;;;;;15.67;2.03;;;4.40;99.90;;;;;;4991774;28;20037;-83
2022/02/21 11:26:15;;;;;;;20.97;1.80;;;4.40;99.90;;;;;;4974112;28;20042;-82
2022/02/21 11:28:57;;;;;;;16.65;2.13;;;4.40;99.90;;;;;;4986439;28;20046;-82
2022/02/21 11:31:32;;;;;;;21.97;2.17;;;4.40;99.90;;;;;;4959344;28;20026;-82
2022/02/21 11:34:09;;;;;;;22.33;2.10;;;4.50;99.90;;;;;;4959572;28;20019;-83
2022/02/21 11:36:45;;;;;;;27.42;2.78;;;4.50;99.90;;;;;;4958309;28;20014;-82
2022/02/21 11:39:38;;;;;;;28.98;4.05;;;4.50;99.90;;;;;;4990854;28;20037;-83
2022/02/21 11:42:19;;;;;;;24.65;2.85;;;4.60;99.90;;;;;;4953658;28;20034;-82
2022/02/21 11:44:51;;;;;;;33.92;3.58;;;4.60;99.90;;;;;;4957377;28;20022;-82
2022/02/21 11:47:40;;;;;;;17.52;2.17;;;4.70;99.90;;;;;;4970602;28;20038;-82
2022/02/21 11:50:19;;;;;;;21.95;2.28;;;4.70;99.90;;;;;;4974036;28;20022;-82
2022/02/21 11:52:50;;;;;;;23.52;2.35;;;4.80;99.90;;;;;;4942243;28;20828;-82
2022/02/21 11:55:29;;;;;;;27.05;3.88;;;4.80;99.90;;;;;;4958252;28;20033;-81
2022/02/21 11:58:20;;;;;;;25.45;2.95;;;4.90;99.90;;;;;;4976566;28;20057;-82
2022/02/21 12:00:49;;;;;;;35.08;5.18;;;5.00;99.90;;;;;;4961063;28;20471;-82
2022/02/21 12:03:18;;;;;;;30.50;3.85;;;5.00;99.90;;;;;;4970465;28;20508;-80
2022/02/21 12:05:46;;;;;;;37.25;5.03;;;5.10;99.90;;;;;;4955791;28;20171;-80
2022/02/21 12:08:28;;;;;;;37.42;4.28;;;5.20;99.90;;;;;;4988230;28;20049;-80
2022/02/21 12:11:04;;;;;;;39.55;4.28;;;5.30;99.90;;;;;;4975992;28;20025;-79
2022/02/21 12:13:31;;;;;;;40.13;5.43;;;5.40;99.90;;;;;;4957131;28;20054;-76
2022/02/21 12:16:09;;;;;;;48.78;4.63;;;5.50;99.90;;;;;;4974074;28;20413;-83
2022/02/21 12:18:58;;;;;;;49.28;6.25;;;5.60;99.90;;;;;;4974965;28;20041;-79
2022/02/21 12:21:29;;;;;;;43.15;4.75;;;5.70;99.90;;;;;;4960905;28;20374;-79
2022/02/21 12:23:55;;;;;;;47.25;4.97;;;5.80;99.90;;;;;;4959131;28;20037;-80
2022/02/21 12:26:23;;;;;;;37.97;3.80;;;5.90;99.90;;;;;;4987275;28;20027;-80
2022/02/21 12:29:12;;;;;;;38.35;4.15;;;6.00;99.90;;;;;;4989790;28;20018;-80
2022/02/21 12:31:41;;;;;;;32.65;4.53;;;6.10;99.90;;;;;;4960041;28;20030;-75
2022/02/21 12:34:08;;;;;;;32.60;4.30;;;6.10;99.90;;;;;;4989436;28;20442;-82
2022/02/21 12:36:39;;;;;;;34.40;3.53;;;6.20;99.90;;;;;;4942217;28;20049;-78
2022/02/21 12:39:08;;;;;;;33.25;4.25;;;6.20;99.90;;;;;;4988295;28;20030;-77
2022/02/21 12:41:41;;;;;;;33.50;4.18;;;6.20;99.90;;;;;;4988240;28;20054;-78
2022/02/21 12:44:12;;;;;;;35.47;4.43;;;6.30;99.90;;;;;;4971834;28;20030;-78
2022/02/21 12:46:58;;;;;;;37.05;5.20;;;6.30;99.90;;;;;;4975719;28;20423;-78
2022/02/21 12:49:35;;;;;;;48.35;5.22;;;6.30;99.90;;;;;;4988677;28;20393;-78
2022/02/21 12:52:12;;;;;;;33.60;4.00;;;6.40;99.90;;;;;;4957319;28;20038;-79
2022/02/21 12:54:56;;;;;;;26.73;3.80;;;6.50;99.90;;;;;;4987958;28;20037;-79
2022/02/21 12:57:30;;;;;;;35.45;3.85;;;6.60;99.90;;;;;;4969065;28;20022;-78